sensor_id;sensor_type;location;lat;lon;timestamp;P1;durP1;ratioP1;P2;durP2;ratioP2
61673;SDS011;47573;43.832;5.974;2022-12-18T00:00:08;773.58;;;581.72;;
61673;SDS011;47573;43.832;5.974;2022-12-18T00:01:49;772.95;;;584.80;;
61673;SDS011;47573;43.832;5.974;2022-12-18T00:03:30;760.65;;;580.22;;
61673;SDS011;47573;43.832;5.974;2022-12-18T00:05:10;770.67;;;570.55;;
61673;SDS011;47573;43.832;5.974;2022-12-18T00:06:51;751.60;;;563.47;;
61673;SDS011;47573;43.832;5.974;2022-12-18T00:08:33;752.00;;;564.28;;
61673;SDS011;47573;43.832;5.974;2022-12-18T00:10:14;747.38;;;560.00;;
61673;SDS011;47573;43.832;5.974;2022-12-18T00:11:54;762.97;;;558.78;;
61673;SDS011;47573;43.832;5.974;2022-12-18T00:13:35;759.28;;;566.45;;
61673;SDS011;47573;43.832;5.974;2022-12-18T00:15:15;746.22;;;561.20;;
61673;SDS011;47573;43.832;5.974;2022-12-18T00:16:56;752.30;;;564.65;;
61673;SDS011;47573;43.832;5.974;2022-12-18T00:18:36;762.97;;;569.08;;
61673;SDS011;47573;43.832;5.974;2022-12-18T00:20:17;771.70;;;575.75;;
61673;SDS011;47573;43.832;5.974;2022-12-18T00:21:57;777.20;;;579.17;;
61673;SDS011;47573;43.832;5.974;2022-12-18T00:23:40;782.97;;;583.03;;
61673;SDS011;47573;43.832;5.974;2022-12-18T00:25:22;780.33;;;582.90;;
61673;SDS011;47573;43.832;5.974;2022-12-18T00:27:03;776.17;;;583.00;;
61673;SDS011;47573;43.832;5.974;2022-12-18T00:28:43;778.30;;;576.50;;
61673;SDS011;47573;43.832;5.974;2022-12-18T00:30:24;766.08;;;568.67;;
61673;SDS011;47573;43.832;5.974;2022-12-18T00:32:05;777.40;;;579.33;;
61673;SDS011;47573;43.832;5.974;2022-12-18T00:33:45;769.70;;;575.78;;
61673;SDS011;47573;43.832;5.974;2022-12-18T00:35:27;771.60;;;570.03;;
61673;SDS011;47573;43.832;5.974;2022-12-18T00:37:07;772.72;;;575.45;;
61673;SDS011;47573;43.832;5.974;2022-12-18T00:38:49;770.45;;;572.92;;
61673;SDS011;47573;43.832;5.974;2022-12-18T00:40:30;764.50;;;568.05;;
61673;SDS011;47573;43.832;5.974;2022-12-18T00:42:10;767.63;;;571.40;;
61673;SDS011;47573;43.832;5.974;2022-12-18T00:43:51;765.70;;;577.70;;
61673;SDS011;47573;43.832;5.974;2022-12-18T00:45:31;774.05;;;573.53;;
61673;SDS011;47573;43.832;5.974;2022-12-18T00:47:11;784.00;;;585.88;;
61673;SDS011;47573;43.832;5.974;2022-12-18T00:48:52;792.35;;;602.17;;
61673;SDS011;47573;43.832;5.974;2022-12-18T00:50:32;796.25;;;601.50;;
61673;SDS011;47573;43.832;5.974;2022-12-18T00:52:13;796.70;;;594.33;;
61673;SDS011;47573;43.832;5.974;2022-12-18T00:53:55;803.60;;;602.97;;
61673;SDS011;47573;43.832;5.974;2022-12-18T00:55:36;808.53;;;606.85;;
61673;SDS011;47573;43.832;5.974;2022-12-18T00:57:17;821.38;;;616.45;;
61673;SDS011;47573;43.832;5.974;2022-12-18T00:58:57;816.80;;;611.63;;
61673;SDS011;47573;43.832;5.974;2022-12-18T01:00:38;820.00;;;612.83;;
61673;SDS011;47573;43.832;5.974;2022-12-18T01:02:18;816.00;;;613.72;;
61673;SDS011;47573;43.832;5.974;2022-12-18T01:03:59;820.22;;;610.83;;
61673;SDS011;47573;43.832;5.974;2022-12-18T01:05:40;825.67;;;615.33;;
61673;SDS011;47573;43.832;5.974;2022-12-18T01:07:21;819.28;;;609.08;;
61673;SDS011;47573;43.832;5.974;2022-12-18T01:09:03;817.53;;;616.88;;
61673;SDS011;47573;43.832;5.974;2022-12-18T01:10:44;817.75;;;614.33;;
61673;SDS011;47573;43.832;5.974;2022-12-18T01:12:24;828.05;;;620.55;;
61673;SDS011;47573;43.832;5.974;2022-12-18T01:14:05;844.72;;;631.67;;
61673;SDS011;47573;43.832;5.974;2022-12-18T01:15:47;841.15;;;628.10;;
61673;SDS011;47573;43.832;5.974;2022-12-18T01:17:28;843.97;;;634.20;;
61673;SDS011;47573;43.832;5.974;2022-12-18T01:19:09;845.00;;;627.67;;
61673;SDS011;47573;43.832;5.974;2022-12-18T01:20:49;844.83;;;630.33;;
61673;SDS011;47573;43.832;5.974;2022-12-18T01:22:30;836.78;;;617.92;;
61673;SDS011;47573;43.832;5.974;2022-12-18T01:24:12;831.08;;;615.90;;
61673;SDS011;47573;43.832;5.974;2022-12-18T01:25:52;822.50;;;620.28;;
61673;SDS011;47573;43.832;5.974;2022-12-18T01:27:33;834.78;;;618.85;;
61673;SDS011;47573;43.832;5.974;2022-12-18T01:29:14;821.00;;;612.53;;
61673;SDS011;47573;43.832;5.974;2022-12-18T01:30:54;825.63;;;615.70;;
61673;SDS011;47573;43.832;5.974;2022-12-18T01:32:34;824.30;;;612.78;;
61673;SDS011;47573;43.832;5.974;2022-12-18T01:34:15;820.17;;;610.58;;
61673;SDS011;47573;43.832;5.974;2022-12-18T01:35:56;816.20;;;610.72;;
61673;SDS011;47573;43.832;5.974;2022-12-18T01:37:36;807.80;;;602.13;;
61673;SDS011;47573;43.832;5.974;2022-12-18T01:39:18;808.67;;;601.80;;
61673;SDS011;47573;43.832;5.974;2022-12-18T01:40:59;801.33;;;597.22;;
61673;SDS011;47573;43.832;5.974;2022-12-18T01:42:40;798.80;;;599.00;;
61673;SDS011;47573;43.832;5.974;2022-12-18T01:46:40;791.60;;;583.38;;
61673;SDS011;47573;43.832;5.974;2022-12-18T01:48:21;781.00;;;584.58;;
61673;SDS011;47573;43.832;5.974;2022-12-18T01:50:03;790.53;;;589.00;;
61673;SDS011;47573;43.832;5.974;2022-12-18T01:51:46;789.45;;;588.13;;
61673;SDS011;47573;43.832;5.974;2022-12-18T01:53:27;781.25;;;584.42;;
61673;SDS011;47573;43.832;5.974;2022-12-18T01:55:10;780.00;;;576.50;;
61673;SDS011;47573;43.832;5.974;2022-12-18T01:56:51;781.00;;;582.28;;
61673;SDS011;47573;43.832;5.974;2022-12-18T01:58:34;770.92;;;581.53;;
61673;SDS011;47573;43.832;5.974;2022-12-18T02:00:20;774.97;;;575.10;;
61673;SDS011;47573;43.832;5.974;2022-12-18T02:02:02;762.17;;;567.22;;
61673;SDS011;47573;43.832;5.974;2022-12-18T02:03:43;759.55;;;563.55;;
61673;SDS011;47573;43.832;5.974;2022-12-18T02:05:31;771.22;;;564.92;;
61673;SDS011;47573;43.832;5.974;2022-12-18T02:07:20;748.55;;;560.10;;
61673;SDS011;47573;43.832;5.974;2022-12-18T02:09:12;748.83;;;554.45;;
61673;SDS011;47573;43.832;5.974;2022-12-18T02:11:01;749.08;;;555.00;;
61673;SDS011;47573;43.832;5.974;2022-12-18T02:12:48;742.90;;;555.25;;
61673;SDS011;47573;43.832;5.974;2022-12-18T02:14:33;745.55;;;556.45;;
61673;SDS011;47573;43.832;5.974;2022-12-18T02:16:19;739.03;;;547.92;;
61673;SDS011;47573;43.832;5.974;2022-12-18T02:18:05;740.72;;;552.38;;
61673;SDS011;47573;43.832;5.974;2022-12-18T02:19:55;736.40;;;541.50;;
61673;SDS011;47573;43.832;5.974;2022-12-18T02:21:45;736.20;;;542.88;;
61673;SDS011;47573;43.832;5.974;2022-12-18T02:23:37;726.38;;;537.75;;
61673;SDS011;47573;43.832;5.974;2022-12-18T02:25:31;724.30;;;534.53;;
61673;SDS011;47573;43.832;5.974;2022-12-18T02:27:21;723.63;;;527.67;;
61673;SDS011;47573;43.832;5.974;2022-12-18T02:29:03;722.30;;;533.20;;
61673;SDS011;47573;43.832;5.974;2022-12-18T02:30:48;722.03;;;534.13;;
61673;SDS011;47573;43.832;5.974;2022-12-18T02:32:33;711.33;;;520.40;;
61673;SDS011;47573;43.832;5.974;2022-12-18T02:34:18;713.75;;;526.15;;
61673;SDS011;47573;43.832;5.974;2022-12-18T02:36:01;705.97;;;520.72;;
61673;SDS011;47573;43.832;5.974;2022-12-18T02:37:43;714.88;;;530.97;;
61673;SDS011;47573;43.832;5.974;2022-12-18T02:39:25;706.88;;;522.00;;
61673;SDS011;47573;43.832;5.974;2022-12-18T02:41:09;700.63;;;514.95;;
61673;SDS011;47573;43.832;5.974;2022-12-18T02:42:52;702.55;;;513.70;;
61673;SDS011;47573;43.832;5.974;2022-12-18T02:44:32;703.85;;;513.85;;
61673;SDS011;47573;43.832;5.974;2022-12-18T02:46:22;693.28;;;511.80;;
61673;SDS011;47573;43.832;5.974;2022-12-18T02:48:07;691.80;;;502.02;;
61673;SDS011;47573;43.832;5.974;2022-12-18T02:49:49;693.67;;;502.58;;
61673;SDS011;47573;43.832;5.974;2022-12-18T02:51:39;688.83;;;495.25;;
61673;SDS011;47573;43.832;5.974;2022-12-18T02:53:30;678.28;;;493.45;;
61673;SDS011;47573;43.832;5.974;2022-12-18T02:55:19;671.10;;;490.85;;
61673;SDS011;47573;43.832;5.974;2022-12-18T02:57:10;672.00;;;483.55;;
61673;SDS011;47573;43.832;5.974;2022-12-18T02:58:58;670.08;;;483.25;;
61673;SDS011;47573;43.832;5.974;2022-12-18T03:00:43;664.78;;;479.10;;
61673;SDS011;47573;43.832;5.974;2022-12-18T03:02:29;660.33;;;473.55;;
61673;SDS011;47573;43.832;5.974;2022-12-18T03:04:18;652.55;;;470.40;;
61673;SDS011;47573;43.832;5.974;2022-12-18T03:06:04;654.55;;;472.05;;
61673;SDS011;47573;43.832;5.974;2022-12-18T03:07:49;652.85;;;465.55;;
61673;SDS011;47573;43.832;5.974;2022-12-18T03:09:34;649.30;;;462.08;;
61673;SDS011;47573;43.832;5.974;2022-12-18T03:11:18;653.22;;;463.02;;
61673;SDS011;47573;43.832;5.974;2022-12-18T03:13:00;639.53;;;461.52;;
61673;SDS011;47573;43.832;5.974;2022-12-18T03:14:45;643.15;;;453.60;;
61673;SDS011;47573;43.832;5.974;2022-12-18T03:16:32;634.13;;;446.77;;
61673;SDS011;47573;43.832;5.974;2022-12-18T03:18:16;628.85;;;439.98;;
61673;SDS011;47573;43.832;5.974;2022-12-18T03:20:03;627.67;;;440.23;;
61673;SDS011;47573;43.832;5.974;2022-12-18T03:21:47;624.33;;;441.05;;
61673;SDS011;47573;43.832;5.974;2022-12-18T03:23:32;624.45;;;434.13;;
61673;SDS011;47573;43.832;5.974;2022-12-18T03:25:16;614.97;;;428.65;;
61673;SDS011;47573;43.832;5.974;2022-12-18T03:27:00;610.55;;;428.90;;
61673;SDS011;47573;43.832;5.974;2022-12-18T03:28:43;617.13;;;434.65;;
61673;SDS011;47573;43.832;5.974;2022-12-18T03:30:31;620.55;;;435.10;;
61673;SDS011;47573;43.832;5.974;2022-12-18T03:32:15;621.00;;;429.63;;
61673;SDS011;47573;43.832;5.974;2022-12-18T03:33:59;609.50;;;420.67;;
61673;SDS011;47573;43.832;5.974;2022-12-18T03:35:44;606.40;;;420.90;;
61673;SDS011;47573;43.832;5.974;2022-12-18T03:37:25;606.97;;;420.13;;
61673;SDS011;47573;43.832;5.974;2022-12-18T03:39:06;603.35;;;418.08;;
61673;SDS011;47573;43.832;5.974;2022-12-18T03:40:51;588.60;;;402.75;;
61673;SDS011;47573;43.832;5.974;2022-12-18T03:42:39;582.05;;;395.30;;
61673;SDS011;47573;43.832;5.974;2022-12-18T03:44:26;587.65;;;398.58;;
61673;SDS011;47573;43.832;5.974;2022-12-18T03:46:15;589.30;;;399.58;;
61673;SDS011;47573;43.832;5.974;2022-12-18T03:48:03;582.05;;;395.13;;
61673;SDS011;47573;43.832;5.974;2022-12-18T03:49:48;580.10;;;390.50;;
61673;SDS011;47573;43.832;5.974;2022-12-18T03:51:37;581.70;;;390.10;;
61673;SDS011;47573;43.832;5.974;2022-12-18T03:53:23;574.90;;;380.88;;
61673;SDS011;47573;43.832;5.974;2022-12-18T03:55:12;571.55;;;379.65;;
61673;SDS011;47573;43.832;5.974;2022-12-18T03:56:54;571.35;;;378.60;;
61673;SDS011;47573;43.832;5.974;2022-12-18T03:58:38;565.75;;;376.90;;
61673;SDS011;47573;43.832;5.974;2022-12-18T04:00:20;565.13;;;374.85;;
61673;SDS011;47573;43.832;5.974;2022-12-18T04:02:02;569.72;;;378.75;;
61673;SDS011;47573;43.832;5.974;2022-12-18T04:03:46;560.50;;;375.30;;
61673;SDS011;47573;43.832;5.974;2022-12-18T04:05:29;566.67;;;378.33;;
61673;SDS011;47573;43.832;5.974;2022-12-18T04:07:12;561.05;;;370.67;;
61673;SDS011;47573;43.832;5.974;2022-12-18T04:08:54;554.40;;;366.42;;
61673;SDS011;47573;43.832;5.974;2022-12-18T04:10:36;558.35;;;364.92;;
61673;SDS011;47573;43.832;5.974;2022-12-18T04:12:17;550.45;;;363.67;;
61673;SDS011;47573;43.832;5.974;2022-12-18T04:13:57;547.67;;;364.60;;
61673;SDS011;47573;43.832;5.974;2022-12-18T04:15:38;542.55;;;357.90;;
61673;SDS011;47573;43.832;5.974;2022-12-18T04:17:21;542.50;;;354.65;;
61673;SDS011;47573;43.832;5.974;2022-12-18T04:19:02;539.63;;;355.05;;
61673;SDS011;47573;43.832;5.974;2022-12-18T04:20:42;533.13;;;345.83;;
61673;SDS011;47573;43.832;5.974;2022-12-18T04:22:23;524.83;;;342.10;;
61673;SDS011;47573;43.832;5.974;2022-12-18T04:24:03;520.70;;;337.20;;
61673;SDS011;47573;43.832;5.974;2022-12-18T04:25:44;519.00;;;338.58;;
61673;SDS011;47573;43.832;5.974;2022-12-18T04:27:25;516.60;;;339.00;;
61673;SDS011;47573;43.832;5.974;2022-12-18T04:29:05;517.40;;;336.25;;
61673;SDS011;47573;43.832;5.974;2022-12-18T04:30:46;512.38;;;331.88;;
61673;SDS011;47573;43.832;5.974;2022-12-18T04:32:28;518.40;;;335.98;;
61673;SDS011;47573;43.832;5.974;2022-12-18T04:34:08;509.05;;;329.23;;
61673;SDS011;47573;43.832;5.974;2022-12-18T04:35:49;510.02;;;324.73;;
61673;SDS011;47573;43.832;5.974;2022-12-18T04:37:29;505.50;;;324.67;;
61673;SDS011;47573;43.832;5.974;2022-12-18T04:39:10;501.58;;;324.92;;
61673;SDS011;47573;43.832;5.974;2022-12-18T04:40:50;504.35;;;320.98;;
61673;SDS011;47573;43.832;5.974;2022-12-18T04:42:31;490.85;;;313.90;;
61673;SDS011;47573;43.832;5.974;2022-12-18T04:44:13;490.00;;;316.52;;
61673;SDS011;47573;43.832;5.974;2022-12-18T04:45:53;490.42;;;313.50;;
61673;SDS011;47573;43.832;5.974;2022-12-18T04:47:42;486.60;;;312.88;;
61673;SDS011;47573;43.832;5.974;2022-12-18T04:49:22;490.25;;;314.60;;
61673;SDS011;47573;43.832;5.974;2022-12-18T04:51:03;485.83;;;310.33;;
61673;SDS011;47573;43.832;5.974;2022-12-18T04:52:44;486.85;;;309.48;;
61673;SDS011;47573;43.832;5.974;2022-12-18T04:54:24;480.35;;;306.23;;
61673;SDS011;47573;43.832;5.974;2022-12-18T04:56:06;477.83;;;303.95;;
61673;SDS011;47573;43.832;5.974;2022-12-18T04:57:47;481.58;;;302.70;;
61673;SDS011;47573;43.832;5.974;2022-12-18T04:59:28;472.45;;;297.35;;
61673;SDS011;47573;43.832;5.974;2022-12-18T05:01:09;463.40;;;293.33;;
61673;SDS011;47573;43.832;5.974;2022-12-18T05:02:51;466.15;;;293.00;;
61673;SDS011;47573;43.832;5.974;2022-12-18T05:04:32;455.30;;;293.25;;
61673;SDS011;47573;43.832;5.974;2022-12-18T05:06:12;463.50;;;290.52;;
61673;SDS011;47573;43.832;5.974;2022-12-18T05:07:53;461.23;;;292.85;;
61673;SDS011;47573;43.832;5.974;2022-12-18T05:09:33;451.92;;;286.27;;
61673;SDS011;47573;43.832;5.974;2022-12-18T05:11:14;457.27;;;288.23;;
61673;SDS011;47573;43.832;5.974;2022-12-18T05:12:55;453.80;;;283.42;;
61673;SDS011;47573;43.832;5.974;2022-12-18T05:14:36;452.48;;;282.48;;
61673;SDS011;47573;43.832;5.974;2022-12-18T05:16:16;449.58;;;282.65;;
61673;SDS011;47573;43.832;5.974;2022-12-18T05:17:58;449.70;;;282.42;;
61673;SDS011;47573;43.832;5.974;2022-12-18T05:19:39;446.60;;;277.10;;
61673;SDS011;47573;43.832;5.974;2022-12-18T05:21:20;445.85;;;277.30;;
61673;SDS011;47573;43.832;5.974;2022-12-18T05:23:00;446.85;;;279.08;;
61673;SDS011;47573;43.832;5.974;2022-12-18T05:24:41;432.45;;;271.95;;
61673;SDS011;47573;43.832;5.974;2022-12-18T05:26:21;425.08;;;266.38;;
61673;SDS011;47573;43.832;5.974;2022-12-18T05:28:02;441.20;;;273.00;;
61673;SDS011;47573;43.832;5.974;2022-12-18T05:29:42;422.98;;;270.08;;
61673;SDS011;47573;43.832;5.974;2022-12-18T05:31:23;421.80;;;266.23;;
61673;SDS011;47573;43.832;5.974;2022-12-18T05:33:05;426.15;;;268.00;;
61673;SDS011;47573;43.832;5.974;2022-12-18T05:34:45;422.40;;;265.80;;
61673;SDS011;47573;43.832;5.974;2022-12-18T05:36:26;418.13;;;262.27;;
61673;SDS011;47573;43.832;5.974;2022-12-18T05:38:06;416.73;;;261.02;;
61673;SDS011;47573;43.832;5.974;2022-12-18T05:39:46;408.27;;;259.73;;
61673;SDS011;47573;43.832;5.974;2022-12-18T05:41:27;410.35;;;255.45;;
61673;SDS011;47573;43.832;5.974;2022-12-18T05:43:07;402.83;;;254.48;;
61673;SDS011;47573;43.832;5.974;2022-12-18T05:44:48;407.48;;;250.90;;
61673;SDS011;47573;43.832;5.974;2022-12-18T05:46:28;398.02;;;251.70;;
61673;SDS011;47573;43.832;5.974;2022-12-18T05:48:10;407.75;;;253.88;;
61673;SDS011;47573;43.832;5.974;2022-12-18T05:49:52;397.33;;;247.35;;
61673;SDS011;47573;43.832;5.974;2022-12-18T05:51:32;397.77;;;246.20;;
61673;SDS011;47573;43.832;5.974;2022-12-18T05:53:13;390.55;;;243.77;;
61673;SDS011;47573;43.832;5.974;2022-12-18T05:54:55;384.55;;;241.85;;
61673;SDS011;47573;43.832;5.974;2022-12-18T05:56:35;385.10;;;241.95;;
61673;SDS011;47573;43.832;5.974;2022-12-18T05:58:16;384.73;;;240.10;;
61673;SDS011;47573;43.832;5.974;2022-12-18T05:59:56;383.58;;;239.65;;
61673;SDS011;47573;43.832;5.974;2022-12-18T06:01:37;393.95;;;243.85;;
61673;SDS011;47573;43.832;5.974;2022-12-18T06:03:19;379.17;;;234.98;;
61673;SDS011;47573;43.832;5.974;2022-12-18T06:04:59;375.17;;;230.80;;
61673;SDS011;47573;43.832;5.974;2022-12-18T06:06:40;378.95;;;234.25;;
61673;SDS011;47573;43.832;5.974;2022-12-18T06:08:20;369.02;;;227.02;;
61673;SDS011;47573;43.832;5.974;2022-12-18T06:10:01;367.08;;;230.02;;
61673;SDS011;47573;43.832;5.974;2022-12-18T06:11:41;368.63;;;229.05;;
61673;SDS011;47573;43.832;5.974;2022-12-18T06:13:22;359.00;;;222.80;;
61673;SDS011;47573;43.832;5.974;2022-12-18T06:15:02;361.67;;;223.05;;
61673;SDS011;47573;43.832;5.974;2022-12-18T06:16:43;352.33;;;221.07;;
61673;SDS011;47573;43.832;5.974;2022-12-18T06:18:25;355.27;;;216.98;;
61673;SDS011;47573;43.832;5.974;2022-12-18T06:20:06;348.25;;;214.50;;
61673;SDS011;47573;43.832;5.974;2022-12-18T06:21:47;336.52;;;209.00;;
61673;SDS011;47573;43.832;5.974;2022-12-18T06:23:27;346.48;;;211.95;;
61673;SDS011;47573;43.832;5.974;2022-12-18T06:25:08;626.20;;;326.65;;
61673;SDS011;47573;43.832;5.974;2022-12-18T06:26:49;502.30;;;269.00;;
61673;SDS011;47573;43.832;5.974;2022-12-18T06:28:29;545.47;;;298.75;;
61673;SDS011;47573;43.832;5.974;2022-12-18T06:30:10;1011.22;;;528.88;;
61673;SDS011;47573;43.832;5.974;2022-12-18T06:31:51;795.35;;;422.52;;
61673;SDS011;47573;43.832;5.974;2022-12-18T06:33:33;693.80;;;367.15;;
61673;SDS011;47573;43.832;5.974;2022-12-18T06:35:14;681.95;;;357.35;;
61673;SDS011;47573;43.832;5.974;2022-12-18T06:36:55;555.97;;;295.15;;
61673;SDS011;47573;43.832;5.974;2022-12-18T06:38:36;476.65;;;262.75;;
61673;SDS011;47573;43.832;5.974;2022-12-18T06:40:18;651.33;;;353.85;;
61673;SDS011;47573;43.832;5.974;2022-12-18T06:41:58;643.60;;;351.15;;
61673;SDS011;47573;43.832;5.974;2022-12-18T06:43:39;723.80;;;380.85;;
61673;SDS011;47573;43.832;5.974;2022-12-18T06:45:19;604.97;;;314.92;;
61673;SDS011;47573;43.832;5.974;2022-12-18T06:47:00;718.08;;;366.50;;
61673;SDS011;47573;43.832;5.974;2022-12-18T06:48:42;836.83;;;414.90;;
61673;SDS011;47573;43.832;5.974;2022-12-18T06:50:22;851.33;;;412.85;;
61673;SDS011;47573;43.832;5.974;2022-12-18T06:52:03;747.00;;;369.08;;
61673;SDS011;47573;43.832;5.974;2022-12-18T06:53:43;643.83;;;324.17;;
61673;SDS011;47573;43.832;5.974;2022-12-18T06:55:24;580.17;;;298.17;;
61673;SDS011;47573;43.832;5.974;2022-12-18T06:57:04;531.10;;;280.92;;
61673;SDS011;47573;43.832;5.974;2022-12-18T06:58:45;502.67;;;266.33;;
61673;SDS011;47573;43.832;5.974;2022-12-18T07:00:25;605.47;;;319.15;;
61673;SDS011;47573;43.832;5.974;2022-12-18T07:02:06;789.25;;;405.05;;
61673;SDS011;47573;43.832;5.974;2022-12-18T07:03:50;722.08;;;357.40;;
61673;SDS011;47573;43.832;5.974;2022-12-18T07:05:32;593.05;;;298.35;;
61673;SDS011;47573;43.832;5.974;2022-12-18T07:07:12;681.08;;;336.23;;
61673;SDS011;47573;43.832;5.974;2022-12-18T07:08:53;579.00;;;293.92;;
61673;SDS011;47573;43.832;5.974;2022-12-18T07:10:34;527.28;;;275.00;;
61673;SDS011;47573;43.832;5.974;2022-12-18T07:12:21;489.15;;;252.60;;
61673;SDS011;47573;43.832;5.974;2022-12-18T07:14:01;453.88;;;238.45;;
61673;SDS011;47573;43.832;5.974;2022-12-18T07:15:42;616.72;;;309.85;;
61673;SDS011;47573;43.832;5.974;2022-12-18T07:17:23;639.65;;;322.85;;
61673;SDS011;47573;43.832;5.974;2022-12-18T07:19:05;527.83;;;268.05;;
61673;SDS011;47573;43.832;5.974;2022-12-18T07:20:45;476.45;;;244.70;;
61673;SDS011;47573;43.832;5.974;2022-12-18T07:22:25;439.05;;;230.50;;
61673;SDS011;47573;43.832;5.974;2022-12-18T07:24:07;422.83;;;221.77;;
61673;SDS011;47573;43.832;5.974;2022-12-18T07:25:47;381.52;;;207.10;;
61673;SDS011;47573;43.832;5.974;2022-12-18T07:27:28;348.95;;;189.93;;
61673;SDS011;47573;43.832;5.974;2022-12-18T07:29:08;341.88;;;183.38;;
61673;SDS011;47573;43.832;5.974;2022-12-18T07:30:49;479.08;;;236.68;;
61673;SDS011;47573;43.832;5.974;2022-12-18T07:32:29;389.23;;;203.68;;
61673;SDS011;47573;43.832;5.974;2022-12-18T07:34:12;693.90;;;319.75;;
61673;SDS011;47573;43.832;5.974;2022-12-18T07:35:53;853.83;;;411.77;;
61673;SDS011;47573;43.832;5.974;2022-12-18T07:37:33;845.22;;;399.77;;
61673;SDS011;47573;43.832;5.974;2022-12-18T07:39:14;614.00;;;289.20;;
61673;SDS011;47573;43.832;5.974;2022-12-18T07:40:54;493.65;;;239.20;;
61673;SDS011;47573;43.832;5.974;2022-12-18T07:42:39;620.13;;;279.52;;
61673;SDS011;47573;43.832;5.974;2022-12-18T07:44:20;577.35;;;257.75;;
61673;SDS011;47573;43.832;5.974;2022-12-18T07:46:00;473.50;;;221.38;;
61673;SDS011;47573;43.832;5.974;2022-12-18T07:47:41;458.45;;;217.65;;
61673;SDS011;47573;43.832;5.974;2022-12-18T07:49:23;432.25;;;206.73;;
61673;SDS011;47573;43.832;5.974;2022-12-18T07:51:04;404.33;;;193.80;;
61673;SDS011;47573;43.832;5.974;2022-12-18T07:52:46;359.75;;;179.27;;
61673;SDS011;47573;43.832;5.974;2022-12-18T07:54:26;505.50;;;245.20;;
61673;SDS011;47573;43.832;5.974;2022-12-18T07:56:08;927.25;;;429.63;;
61673;SDS011;47573;43.832;5.974;2022-12-18T07:57:50;907.97;;;410.00;;
61673;SDS011;47573;43.832;5.974;2022-12-18T07:59:30;598.80;;;266.95;;
61673;SDS011;47573;43.832;5.974;2022-12-18T08:01:11;388.27;;;177.27;;
61673;SDS011;47573;43.832;5.974;2022-12-18T08:02:52;367.83;;;173.40;;
61673;SDS011;47573;43.832;5.974;2022-12-18T08:04:34;327.58;;;164.15;;
61673;SDS011;47573;43.832;5.974;2022-12-18T08:06:14;308.48;;;155.00;;
61673;SDS011;47573;43.832;5.974;2022-12-18T08:07:55;300.60;;;154.13;;
61673;SDS011;47573;43.832;5.974;2022-12-18T08:09:35;276.42;;;146.65;;
61673;SDS011;47573;43.832;5.974;2022-12-18T08:11:16;261.02;;;140.27;;
61673;SDS011;47573;43.832;5.974;2022-12-18T08:12:56;274.63;;;145.20;;
61673;SDS011;47573;43.832;5.974;2022-12-18T08:14:37;254.23;;;137.68;;
61673;SDS011;47573;43.832;5.974;2022-12-18T08:16:17;255.75;;;138.30;;
61673;SDS011;47573;43.832;5.974;2022-12-18T08:17:58;240.88;;;133.43;;
61673;SDS011;47573;43.832;5.974;2022-12-18T08:19:40;235.63;;;132.60;;
61673;SDS011;47573;43.832;5.974;2022-12-18T08:21:21;233.52;;;133.43;;
61673;SDS011;47573;43.832;5.974;2022-12-18T08:23:03;224.05;;;129.20;;
61673;SDS011;47573;43.832;5.974;2022-12-18T08:24:43;221.13;;;126.25;;
61673;SDS011;47573;43.832;5.974;2022-12-18T08:26:25;214.05;;;124.75;;
61673;SDS011;47573;43.832;5.974;2022-12-18T08:28:06;206.60;;;121.32;;
61673;SDS011;47573;43.832;5.974;2022-12-18T08:29:47;204.20;;;121.25;;
61673;SDS011;47573;43.832;5.974;2022-12-18T08:31:28;200.15;;;118.10;;
61673;SDS011;47573;43.832;5.974;2022-12-18T08:33:09;201.07;;;118.25;;
61673;SDS011;47573;43.832;5.974;2022-12-18T08:34:51;192.77;;;115.65;;
61673;SDS011;47573;43.832;5.974;2022-12-18T08:36:31;190.70;;;115.22;;
61673;SDS011;47573;43.832;5.974;2022-12-18T08:38:12;190.93;;;114.10;;
61673;SDS011;47573;43.832;5.974;2022-12-18T08:39:52;187.27;;;111.50;;
61673;SDS011;47573;43.832;5.974;2022-12-18T08:41:33;303.95;;;151.43;;
61673;SDS011;47573;43.832;5.974;2022-12-18T08:43:13;205.68;;;117.80;;
61673;SDS011;47573;43.832;5.974;2022-12-18T08:44:54;204.90;;;117.88;;
61673;SDS011;47573;43.832;5.974;2022-12-18T08:46:35;186.98;;;110.97;;
61673;SDS011;47573;43.832;5.974;2022-12-18T08:48:17;185.30;;;112.05;;
61673;SDS011;47573;43.832;5.974;2022-12-18T08:49:58;184.93;;;112.20;;
61673;SDS011;47573;43.832;5.974;2022-12-18T08:51:39;188.80;;;112.13;;
61673;SDS011;47573;43.832;5.974;2022-12-18T08:53:20;177.90;;;109.28;;
61673;SDS011;47573;43.832;5.974;2022-12-18T08:55:00;177.80;;;107.47;;
61673;SDS011;47573;43.832;5.974;2022-12-18T08:56:41;166.85;;;102.18;;
61673;SDS011;47573;43.832;5.974;2022-12-18T08:58:21;173.98;;;104.68;;
61673;SDS011;47573;43.832;5.974;2022-12-18T09:00:02;172.07;;;104.57;;
61673;SDS011;47573;43.832;5.974;2022-12-18T09:01:44;172.00;;;103.65;;
61673;SDS011;47573;43.832;5.974;2022-12-18T09:03:25;169.18;;;102.75;;
61673;SDS011;47573;43.832;5.974;2022-12-18T09:05:07;171.75;;;101.93;;
61673;SDS011;47573;43.832;5.974;2022-12-18T09:06:49;169.90;;;101.85;;
61673;SDS011;47573;43.832;5.974;2022-12-18T09:08:29;163.52;;;100.47;;
61673;SDS011;47573;43.832;5.974;2022-12-18T09:10:10;164.93;;;100.05;;
61673;SDS011;47573;43.832;5.974;2022-12-18T09:11:50;161.25;;;97.63;;
61673;SDS011;47573;43.832;5.974;2022-12-18T09:13:31;372.15;;;188.45;;
61673;SDS011;47573;43.832;5.974;2022-12-18T09:15:11;171.35;;;101.18;;
61673;SDS011;47573;43.832;5.974;2022-12-18T09:16:52;169.10;;;101.40;;
61673;SDS011;47573;43.832;5.974;2022-12-18T09:18:32;169.70;;;101.57;;
61673;SDS011;47573;43.832;5.974;2022-12-18T09:20:14;164.07;;;99.75;;
61673;SDS011;47573;43.832;5.974;2022-12-18T09:21:54;162.70;;;98.95;;
61673;SDS011;47573;43.832;5.974;2022-12-18T09:23:35;162.50;;;96.05;;
61673;SDS011;47573;43.832;5.974;2022-12-18T09:25:15;161.43;;;96.75;;
61673;SDS011;47573;43.832;5.974;2022-12-18T09:26:56;154.82;;;95.30;;
61673;SDS011;47573;43.832;5.974;2022-12-18T09:28:36;156.43;;;94.32;;
61673;SDS011;47573;43.832;5.974;2022-12-18T09:30:17;148.55;;;91.82;;
61673;SDS011;47573;43.832;5.974;2022-12-18T09:31:57;152.68;;;92.63;;
61673;SDS011;47573;43.832;5.974;2022-12-18T09:33:38;157.07;;;93.72;;
61673;SDS011;47573;43.832;5.974;2022-12-18T09:35:20;155.55;;;92.63;;
61673;SDS011;47573;43.832;5.974;2022-12-18T09:37:00;152.75;;;92.53;;
61673;SDS011;47573;43.832;5.974;2022-12-18T09:38:41;151.13;;;91.60;;
61673;SDS011;47573;43.832;5.974;2022-12-18T09:40:22;149.73;;;90.22;;